sensor_id;sensor_type;location;lat;lon;timestamp;temperature;humidity
20162;DHT22;51382;53.180;15.414;2023-11-19T00:02:29;3.60;99.90
20162;DHT22;51382;53.180;15.414;2023-11-19T00:17:44;3.50;99.90
20162;DHT22;51382;53.180;15.414;2023-11-19T00:32:54;2.90;99.90
20162;DHT22;51382;53.180;15.414;2023-11-19T00:56:48;2.80;99.90
20162;DHT22;51382;53.180;15.414;2023-11-19T01:11:59;2.70;99.90
20162;DHT22;51382;53.180;15.414;2023-11-19T05:36:17;2.10;99.90
20162;DHT22;51382;53.180;15.414;2023-11-19T05:51:28;2.20;99.90
20162;DHT22;51382;53.180;15.414;2023-11-19T06:06:40;2.20;99.90
20162;DHT22;51382;53.180;15.414;2023-11-19T06:21:46;2.20;99.90
20162;DHT22;51382;53.180;15.414;2023-11-19T06:36:57;2.00;99.90
20162;DHT22;51382;53.180;15.414;2023-11-19T06:52:11;2.00;99.90
20162;DHT22;51382;53.180;15.414;2023-11-19T07:07:22;2.10;99.90
20162;DHT22;51382;53.180;15.414;2023-11-19T07:22:34;2.00;99.90
20162;DHT22;51382;53.180;15.414;2023-11-19T07:37:46;1.60;99.90
20162;DHT22;51382;53.180;15.414;2023-11-19T07:52:58;1.30;99.90
20162;DHT22;51382;53.180;15.414;2023-11-19T08:08:10;1.00;99.90
20162;DHT22;51382;53.180;15.414;2023-11-19T08:23:21;1.10;99.90
20162;DHT22;51382;53.180;15.414;2023-11-19T08:38:33;1.10;99.90
20162;DHT22;51382;53.180;15.414;2023-11-19T08:53:45;1.00;99.90
20162;DHT22;51382;53.180;15.414;2023-11-19T09:08:56;0.80;99.90
20162;DHT22;51382;53.180;15.414;2023-11-19T09:24:10;0.80;99.90
20162;DHT22;51382;53.180;15.414;2023-11-19T09:39:24;1.20;99.90
20162;DHT22;51382;53.180;15.414;2023-11-19T09:54:35;1.20;99.90
20162;DHT22;51382;53.180;15.414;2023-11-19T10:09:47;1.30;99.90
20162;DHT22;51382;53.180;15.414;2023-11-19T10:24:59;1.20;99.90
20162;DHT22;51382;53.180;15.414;2023-11-19T10:40:11;1.50;99.90
20162;DHT22;51382;53.180;15.414;2023-11-19T10:55:25;1.80;99.90
20162;DHT22;51382;53.180;15.414;2023-11-19T11:10:35;1.70;99.90
20162;DHT22;51382;53.180;15.414;2023-11-19T11:25:54;1.80;99.90
20162;DHT22;51382;53.180;15.414;2023-11-19T11:41:21;1.60;99.90
20162;DHT22;51382;53.180;15.414;2023-11-19T11:56:34;1.80;99.90
20162;DHT22;51382;53.180;15.414;2023-11-19T12:11:48;1.80;99.90
20162;DHT22;51382;53.180;15.414;2023-11-19T12:27:11;1.90;99.90
20162;DHT22;51382;53.180;15.414;2023-11-19T12:42:35;1.70;99.90
20162;DHT22;51382;53.180;15.414;2023-11-19T12:57:48;1.80;99.90
20162;DHT22;51382;53.180;15.414;2023-11-19T13:13:03;1.70;99.90
20162;DHT22;51382;53.180;15.414;2023-11-19T13:28:11;1.70;99.90
20162;DHT22;51382;53.180;15.414;2023-11-19T13:43:23;1.80;99.90
20162;DHT22;51382;53.180;15.414;2023-11-19T13:58:36;2.10;99.90
20162;DHT22;51382;53.180;15.414;2023-11-19T14:13:50;2.20;99.90
20162;DHT22;51382;53.180;15.414;2023-11-19T14:29:01;2.40;99.90
20162;DHT22;51382;53.180;15.414;2023-11-19T14:44:14;2.50;99.90
20162;DHT22;51382;53.180;15.414;2023-11-19T14:59:23;2.70;99.90
20162;DHT22;51382;53.180;15.414;2023-11-19T15:14:34;3.10;99.90
20162;DHT22;51382;53.180;15.414;2023-11-19T15:29:46;3.30;99.90
20162;DHT22;51382;53.180;15.414;2023-11-19T15:44:58;3.30;99.90
20162;DHT22;51382;53.180;15.414;2023-11-19T16:00:13;3.60;99.90
20162;DHT22;51382;53.180;15.414;2023-11-19T16:15:26;3.70;99.90
20162;DHT22;51382;53.180;15.414;2023-11-19T16:30:39;3.80;99.90
20162;DHT22;51382;53.180;15.414;2023-11-19T16:45:51;4.00;99.90
20162;DHT22;51382;53.180;15.414;2023-11-19T17:01:04;4.80;99.90
20162;DHT22;51382;53.180;15.414;2023-11-19T17:16:15;7.90;99.90
20162;DHT22;51382;53.180;15.414;2023-11-19T17:31:22;8.60;99.90
20162;DHT22;51382;53.180;15.414;2023-11-19T17:46:34;8.60;99.90
20162;DHT22;51382;53.180;15.414;2023-11-19T18:01:46;8.80;99.90
20162;DHT22;51382;53.180;15.414;2023-11-19T18:16:58;8.60;99.90
20162;DHT22;51382;53.180;15.414;2023-11-19T18:32:12;8.80;99.90
20162;DHT22;51382;53.180;15.414;2023-11-19T18:47:18;8.60;99.90
20162;DHT22;51382;53.180;15.414;2023-11-19T19:02:30;8.90;99.90
20162;DHT22;51382;53.180;15.414;2023-11-19T19:17:41;8.90;99.90
20162;DHT22;51382;53.180;15.414;2023-11-19T19:32:53;8.90;99.90
20162;DHT22;51382;53.180;15.414;2023-11-19T19:48:06;8.90;99.90
20162;DHT22;51382;53.180;15.414;2023-11-19T20:03:17;8.90;99.90
20162;DHT22;51382;53.180;15.414;2023-11-19T20:18:29;8.90;99.90
20162;DHT22;51382;53.180;15.414;2023-11-19T20:33:43;8.90;99.90
20162;DHT22;51382;53.180;15.414;2023-11-19T20:48:56;8.80;99.90
20162;DHT22;51382;53.180;15.414;2023-11-19T21:04:07;8.90;99.90
20162;DHT22;51382;53.180;15.414;2023-11-19T21:19:19;8.80;99.90
20162;DHT22;51382;53.180;15.414;2023-11-19T21:34:30;8.80;99.90
20162;DHT22;51382;53.180;15.414;2023-11-19T21:49:41;8.70;99.90
20162;DHT22;51382;53.180;15.414;2023-11-19T22:04:53;8.80;99.90
20162;DHT22;51382;53.180;15.414;2023-11-19T22:20:05;8.70;99.90
20162;DHT22;51382;53.180;15.414;2023-11-19T22:35:18;8.70;99.90
20162;DHT22;51382;53.180;15.414;2023-11-19T22:50:30;8.70;99.90
20162;DHT22;51382;53.180;15.414;2023-11-19T23:05:42;8.70;99.90
20162;DHT22;51382;53.180;15.414;2023-11-19T23:20:53;8.90;99.90
20162;DHT22;51382;53.180;15.414;2023-11-19T23:36:06;8.90;99.90
20162;DHT22;51382;53.180;15.414;2023-11-19T23:51:18;8.90;99.90
